Time;durP1;ratioP1;P1;durP2;ratioP2;P2;SDS_P1;SDS_P2;PMS_P1;PMS_P2;Temp;Humidity;BMP_temperature;BMP_pressure;BME280_temperature;BME280_humidity;BME280_pressure;Samples;Min_cycle;Max_cycle;Signal;HPM_P1;HPM_P2
2022/05/31 00:01:13;;;;;;;0.35;0.10;;;16.30;55.80;;;;;;5093211;28;20032;-70
2022/05/31 00:03:39;;;;;;;0.40;0.10;;;16.30;55.80;;;;;;5075184;28;20051;-70
2022/05/31 00:06:05;;;;;;;0.20;0.10;;;16.30;55.80;;;;;;5074964;28;20395;-70
2022/05/31 00:08:32;;;;;;;0.15;0.10;;;16.30;55.80;;;;;;5075034;28;20028;-69
2022/05/31 00:11:00;;;;;;;0.32;0.10;;;16.30;55.80;;;;;;5074942;28;20387;-70
2022/05/31 00:13:27;;;;;;;0.22;0.10;;;16.30;55.80;;;;;;5093063;28;20429;-69
2022/05/31 00:15:53;;;;;;;0.40;0.20;;;16.30;55.80;;;;;;5074962;28;20391;-69
2022/05/31 00:18:19;;;;;;;0.35;0.10;;;16.30;55.80;;;;;;5092503;28;20064;-70
2022/05/31 00:20:45;;;;;;;0.60;0.20;;;16.30;55.80;;;;;;5074563;28;20087;-70
2022/05/31 00:23:11;;;;;;;0.35;0.10;;;16.20;55.70;;;;;;5092679;28;20036;-63
2022/05/31 00:25:37;;;;;;;0.50;0.10;;;16.20;55.70;;;;;;5092877;28;20042;-69
2022/05/31 00:28:03;;;;;;;0.13;0.10;;;16.20;55.70;;;;;;5074766;28;20044;-69
2022/05/31 00:30:29;;;;;;;0.50;0.20;;;16.20;55.70;;;;;;5092706;28;20434;-70
2022/05/31 00:32:57;;;;;;;0.25;0.10;;;16.20;55.70;;;;;;5092580;28;20093;-69
2022/05/31 00:35:28;;;;;;;0.22;0.10;;;16.20;55.70;;;;;;5074545;28;20158;-69
2022/05/31 00:37:54;;;;;;;0.47;0.10;;;16.20;55.70;;;;;;5074575;28;20051;-70
2022/05/31 00:40:23;;;;;;;0.57;0.20;;;16.20;55.70;;;;;;5074121;28;20107;-70
2022/05/31 00:42:53;;;;;;;0.30;0.10;;;16.20;55.70;;;;;;5074555;28;20048;-70
2022/05/31 00:45:37;;;;;;;0.30;0.10;;;16.20;55.80;;;;;;5092295;28;20044;-70
2022/05/31 00:48:06;;;;;;;1.13;0.17;;;16.20;55.70;;;;;;5074415;28;20051;-69
2022/05/31 00:50:37;;;;;;;0.10;0.10;;;16.20;55.80;;;;;;5074158;28;20071;-70
2022/05/31 00:53:12;;;;;;;0.68;0.10;;;16.10;55.80;;;;;;5092177;28;20077;-69
2022/05/31 00:55:42;;;;;;;0.30;0.10;;;16.10;55.70;;;;;;5074401;28;20039;-70
2022/05/31 00:58:11;;;;;;;;;;;16.10;55.80;;;;;;5092709;28;20039;-69
2022/05/31 01:00:37;;;;;;;0.30;0.20;;;16.10;55.80;;;;;;5090796;28;19916;-69
2022/05/31 01:03:04;;;;;;;0.22;0.10;;;16.10;55.80;;;;;;5073980;28;20480;-69
2022/05/31 01:05:30;;;;;;;0.52;0.10;;;16.10;55.80;;;;;;5092357;28;20112;-69
2022/05/31 01:07:55;;;;;;;0.82;0.10;;;16.10;55.80;;;;;;5073884;28;20124;-70
2022/05/31 01:10:21;;;;;;;0.20;0.10;;;16.10;55.80;;;;;;5057342;28;20054;-70
2022/05/31 01:12:49;;;;;;;0.20;0.10;;;16.10;55.80;;;;;;5074138;28;20097;-70
2022/05/31 01:15:17;;;;;;;0.20;0.10;;;16.10;55.80;;;;;;5074224;28;20056;-69
2022/05/31 01:17:43;;;;;;;1.10;0.10;;;16.10;55.80;;;;;;5091850;28;20074;-69
2022/05/31 01:20:16;;;;;;;0.50;0.20;;;16.00;55.80;;;;;;5070255;28;20049;-70
2022/05/31 01:22:49;;;;;;;0.28;0.10;;;16.10;55.80;;;;;;5070607;28;20123;-70
2022/05/31 01:31:09;;;;;;;0.63;0.50;;;16.00;55.90;;;;;;5152288;27;1177451;-70
2022/05/31 01:34:00;;;;;;;0.20;0.10;;;16.00;55.80;;;;;;5153095;27;20054;-70
2022/05/31 01:36:34;;;;;;;1.25;0.10;;;15.90;55.80;;;;;;5152953;27;20088;-69
2022/05/31 01:44:21;;;;;;;0.40;0.10;;;16.00;55.90;;;;;;5153020;27;1160347;-69
2022/05/31 01:46:53;;;;;;;0.40;0.00;;;15.90;55.80;;;;;;5153144;27;20088;-70
2022/05/31 01:49:19;;;;;;;0.47;0.38;;;15.90;55.80;;;;;;5153058;27;20046;-69
2022/05/31 01:51:46;;;;;;;0.40;0.30;;;16.00;55.90;;;;;;5153361;27;20509;-70
2022/05/31 01:54:14;;;;;;;0.22;0.10;;;15.90;55.80;;;;;;5152937;27;20478;-69
2022/05/31 01:56:42;;;;;;;0.40;0.10;;;15.90;55.80;;;;;;5153265;27;20427;-70
2022/05/31 01:59:09;;;;;;;0.20;0.10;;;15.90;55.90;;;;;;5171624;27;20110;-69
2022/05/31 02:01:38;;;;;;;0.50;0.20;;;15.90;55.90;;;;;;5152952;27;20042;-71
2022/05/31 02:04:04;;;;;;;0.30;0.10;;;15.90;55.90;;;;;;5152725;27;20050;-70
2022/05/31 02:06:33;;;;;;;0.30;0.10;;;15.90;55.90;;;;;;5152892;27;20038;-70
2022/05/31 02:09:00;;;;;;;0.47;0.10;;;15.90;55.90;;;;;;5171316;27;20038;-69
2022/05/31 02:11:27;;;;;;;0.45;0.10;;;15.80;55.90;;;;;;5152713;27;20042;-71
2022/05/31 02:13:53;;;;;;;1.35;0.20;;;15.80;55.90;;;;;;5152572;27;20125;-70
2022/05/31 02:16:22;;;;;;;0.25;0.10;;;15.80;55.80;;;;;;5152599;27;20163;-69
2022/05/31 02:19:25;;;;;;;0.38;0.10;;;15.80;55.90;;;;;;5171099;27;20039;-71
2022/05/31 02:21:36;;;;;;;0.60;0.17;;;15.80;55.90;;;;;;5170942;27;20127;-69
2022/05/31 02:24:07;;;;;;;1.38;0.20;;;15.90;55.90;;;;;;5171050;27;20043;-70
2022/05/31 02:26:33;;;;;;;;;;;15.90;55.90;;;;;;5152877;27;20046;-70
2022/05/31 02:28:59;;;;;;;0.20;0.10;;;15.90;55.90;;;;;;5152489;27;19915;-69
2022/05/31 02:31:26;;;;;;;0.73;0.10;;;16.00;55.70;;;;;;5152342;27;20038;-70
2022/05/31 02:33:52;;;;;;;0.40;0.10;;;16.10;55.50;;;;;;5152171;27;20038;-70
2022/05/31 02:36:18;;;;;;;0.60;0.10;;;16.30;55.30;;;;;;5152164;27;20485;-69
2022/05/31 02:38:44;;;;;;;0.20;0.10;;;16.40;55.10;;;;;;5170734;27;20038;-69
2022/05/31 02:41:10;;;;;;;0.35;0.10;;;16.60;54.80;;;;;;5152079;27;20462;-70
2022/05/31 02:43:38;;;;;;;0.10;0.10;;;16.70;54.50;;;;;;5138389;27;20077;-70
2022/05/31 02:46:04;;;;;;;0.30;0.10;;;16.80;54.20;;;;;;5128056;28;20490;-70
2022/05/31 02:48:30;;;;;;;0.10;0.00;;;16.90;54.00;;;;;;5128131;28;20075;-70
2022/05/31 02:50:56;;;;;;;0.20;0.20;;;17.00;53.80;;;;;;5129137;28;20035;-70
2022/05/31 02:53:21;;;;;;;0.30;0.10;;;17.00;53.60;;;;;;5128053;28;20046;-70
2022/05/31 02:55:47;;;;;;;0.25;0.10;;;17.10;54.30;;;;;;5114580;28;20042;-69
2022/05/31 02:58:13;;;;;;;0.20;0.10;;;17.10;53.50;;;;;;5114253;28;20122;-70
2022/05/31 03:00:39;;;;;;;0.10;0.00;;;17.10;53.40;;;;;;5114131;28;20040;-70
2022/05/31 03:03:05;;;;;;;0.35;0.10;;;17.10;53.40;;;;;;5115000;28;20068;-69
2022/05/31 03:05:31;;;;;;;0.20;0.10;;;17.00;53.30;;;;;;5115113;28;20461;-70
2022/05/31 03:07:57;;;;;;;0.15;0.10;;;17.10;53.40;;;;;;5113748;28;20092;-70
2022/05/31 03:10:27;;;;;;;0.63;0.10;;;17.10;53.40;;;;;;5113720;28;20035;-70
2022/05/31 03:12:55;;;;;;;0.82;0.10;;;17.00;53.40;;;;;;5113702;28;20056;-70
2022/05/31 03:15:23;;;;;;;0.17;0.10;;;17.00;53.40;;;;;;5113804;28;20040;-70
2022/05/31 03:17:58;;;;;;;1.35;0.20;;;17.00;53.40;;;;;;5113863;28;20386;-70
2022/05/31 03:20:34;;;;;;;0.15;0.10;;;17.00;53.50;;;;;;5114883;28;20040;-70
2022/05/31 03:25:50;;;;;;;0.38;0.10;;;16.90;53.60;;;;;;5130206;27;20415;-70
2022/05/31 03:28:17;;;;;;;0.20;0.10;;;16.80;53.70;;;;;;5128991;28;20055;-70
2022/05/31 03:30:42;;;;;;;0.50;0.10;;;16.80;53.70;;;;;;5128936;28;20488;-70
2022/05/31 03:33:09;;;;;;;0.45;0.10;;;16.80;53.80;;;;;;5129206;28;20118;-70
2022/05/31 03:35:36;;;;;;;0.60;0.10;;;16.70;53.90;;;;;;5128920;28;20035;-70
2022/05/31 03:38:02;;;;;;;0.40;0.10;;;16.70;53.90;;;;;;5129124;28;20041;-70
2022/05/31 03:40:59;;;;;;;2.42;0.20;;;16.70;54.10;;;;;;5130085;27;20046;-70
2022/05/31 03:43:13;;;;;;;0.50;0.10;;;16.70;54.20;;;;;;5129842;28;20416;-70
2022/05/31 03:45:41;;;;;;;0.40;0.10;;;16.60;54.20;;;;;;5128630;28;20039;-66
2022/05/31 03:48:08;;;;;;;0.13;0.10;;;16.60;54.30;;;;;;5128619;28;20114;-69
2022/05/31 03:50:34;;;;;;;0.55;0.20;;;16.60;54.30;;;;;;5128764;28;20171;-70
2022/05/31 03:53:00;;;;;;;1.50;0.10;;;16.60;54.40;;;;;;5128481;28;20245;-70
2022/05/31 03:55:26;;;;;;;1.05;0.10;;;16.50;54.40;;;;;;5128754;28;20075;-70
2022/05/31 03:57:52;;;;;;;0.35;0.17;;;16.50;54.40;;;;;;5128657;28;20051;-69
2022/05/31 04:00:19;;;;;;;0.65;0.30;;;16.50;54.60;;;;;;5128674;28;20072;-70
2022/05/31 04:02:45;;;;;;;0.50;0.20;;;16.50;54.60;;;;;;5129651;27;20070;-70
2022/05/31 04:05:13;;;;;;;0.32;0.10;;;16.40;54.70;;;;;;5129610;27;20055;-70
2022/05/31 04:07:38;;;;;;;1.48;0.20;;;16.40;54.70;;;;;;5128096;28;20043;-70
2022/05/31 04:10:06;;;;;;;0.52;0.10;;;16.40;54.80;;;;;;5129720;27;20047;-62
2022/05/31 04:12:36;;;;;;;0.50;0.20;;;16.40;54.80;;;;;;5128139;28;20035;-70
2022/05/31 04:15:05;;;;;;;1.23;0.20;;;16.40;54.80;;;;;;5128155;28;20062;-70
2022/05/31 04:17:31;;;;;;;0.57;0.10;;;16.40;54.90;;;;;;5129340;27;20489;-70
2022/05/31 04:19:57;;;;;;;0.70;0.20;;;16.40;54.90;;;;;;5129308;27;20035;-70
2022/05/31 04:22:23;;;;;;;0.30;0.10;;;16.40;54.90;;;;;;5128065;28;20045;-71
2022/05/31 04:24:54;;;;;;;1.42;0.22;;;16.40;54.90;;;;;;5127419;28;20131;-70
2022/05/31 04:27:26;;;;;;;1.42;0.20;;;16.40;54.90;;;;;;5128151;28;20449;-62
2022/05/31 04:29:51;;;;;;;0.40;0.20;;;16.40;54.90;;;;;;5129171;27;20379;-70
2022/05/31 04:32:17;;;;;;;0.57;0.15;;;16.40;54.90;;;;;;5127735;28;20039;-71
2022/05/31 04:34:43;;;;;;;0.82;0.10;;;16.40;54.90;;;;;;5129119;27;20028;-70
2022/05/31 04:37:09;;;;;;;0.45;0.15;;;16.40;54.80;;;;;;5114131;28;20368;-70
2022/05/31 04:39:35;;;;;;;0.28;0.05;;;16.40;54.80;;;;;;5113991;28;20082;-70
2022/05/31 04:42:01;;;;;;;0.30;0.10;;;16.40;54.80;;;;;;5115237;28;20067;-70
2022/05/31 04:44:27;;;;;;;0.65;0.20;;;16.40;54.80;;;;;;5113715;28;20048;-70
2022/05/31 04:46:53;;;;;;;0.20;0.10;;;16.40;54.80;;;;;;5115143;28;20027;-71
2022/05/31 04:49:20;;;;;;;0.63;0.13;;;16.40;54.80;;;;;;5115143;28;20047;-70
2022/05/31 04:51:46;;;;;;;0.40;0.20;;;16.40;54.80;;;;;;5114040;28;20090;-65
2022/05/31 04:54:12;;;;;;;0.45;0.20;;;16.40;54.80;;;;;;5114011;28;20104;-70
2022/05/31 04:56:38;;;;;;;1.55;0.10;;;16.40;54.80;;;;;;5113689;28;20051;-70
2022/05/31 04:59:04;;;;;;;0.57;0.10;;;16.40;54.80;;;;;;5113836;28;20040;-70
2022/05/31 05:01:33;;;;;;;0.40;0.10;;;16.40;54.80;;;;;;5114951;28;20399;-70
2022/05/31 05:03:59;;;;;;;0.40;0.20;;;16.40;54.80;;;;;;5113636;28;20043;-70
2022/05/31 05:06:28;;;;;;;0.40;0.10;;;16.40;54.80;;;;;;5114751;28;20540;-70
2022/05/31 05:08:53;;;;;;;0.50;0.20;;;16.40;54.80;;;;;;5113473;28;20062;-70
2022/05/31 05:11:21;;;;;;;0.55;0.13;;;16.40;54.80;;;;;;5113649;28;20419;-71
2022/05/31 05:13:48;;;;;;;0.68;0.20;;;16.40;54.80;;;;;;5113492;28;20039;-69
2022/05/31 05:16:15;;;;;;;0.60;0.20;;;16.40;54.80;;;;;;5113641;28;20067;-70
2022/05/31 05:18:41;;;;;;;1.92;0.20;;;16.40;54.90;;;;;;5114281;28;20040;-69
2022/05/31 05:21:10;;;;;;;0.30;0.10;;;16.40;54.90;;;;;;5106098;28;20032;-68
2022/05/31 05:23:36;;;;;;;0.75;0.10;;;16.40;55.80;;;;;;5112586;28;20136;-68
2022/05/31 05:26:02;;;;;;;0.70;0.10;;;16.40;56.40;;;;;;5113185;28;20039;-75
2022/05/31 05:33:59;;;;;;;0.45;0.10;;;16.60;57.50;;;;;;5109034;27;20359;-74
2022/05/31 05:36:26;;;;;;;0.30;0.10;;;16.70;57.40;;;;;;5106709;28;20036;-75
2022/05/31 05:38:52;;;;;;;0.22;0.10;;;16.70;57.30;;;;;;5107708;28;20500;-70
2022/05/31 05:41:20;;;;;;;2.35;0.20;;;16.80;57.20;;;;;;5105423;28;20040;-74
2022/05/31 05:43:46;;;;;;;0.52;0.10;;;16.80;57.00;;;;;;5106624;28;20039;-73
2022/05/31 05:46:20;;;;;;;1.08;0.25;;;16.90;57.10;;;;;;5107464;28;20119;-74
2022/05/31 05:48:46;;;;;;;0.50;0.10;;;16.90;57.50;;;;;;5107590;28;20069;-73
2022/05/31 05:51:13;;;;;;;1.73;0.13;;;17.00;57.10;;;;;;5105832;28;20057;-74
2022/05/31 05:53:39;;;;;;;0.68;0.10;;;17.00;56.90;;;;;;5106566;28;20071;-72
2022/05/31 05:56:05;;;;;;;0.30;0.10;;;17.10;56.90;;;;;;5108631;28;20102;-71
2022/05/31 05:58:30;;;;;;;1.50;0.30;;;17.10;57.40;;;;;;5105658;28;20097;-70
2022/05/31 06:00:56;;;;;;;0.30;0.10;;;17.10;57.60;;;;;;5105551;28;20063;-72
2022/05/31 06:03:27;;;;;;;0.20;0.10;;;17.20;56.50;;;;;;5101358;28;20064;-71
2022/05/31 06:05:54;;;;;;;0.57;0.10;;;17.20;56.30;;;;;;5095746;28;20097;-72
2022/05/31 06:08:27;;;;;;;0.75;0.10;;;17.20;56.20;;;;;;5097640;28;20052;-72
2022/05/31 06:13:46;;;;;;;0.73;0.20;;;17.30;56.10;;;;;;5121137;27;20434;-73
2022/05/31 06:16:13;;;;;;;2.42;0.32;;;17.30;56.40;;;;;;5103726;28;20594;-70
2022/05/31 06:18:47;;;;;;;1.05;0.10;;;17.30;56.40;;;;;;5099427;28;20070;-71
2022/05/31 06:21:15;;;;;;;2.05;0.20;;;17.40;56.20;;;;;;5100159;28;20491;-70
2022/05/31 06:23:42;;;;;;;2.55;0.13;;;17.40;56.10;;;;;;5094443;28;20699;-67
2022/05/31 06:26:08;;;;;;;0.80;0.10;;;17.40;55.90;;;;;;5080379;28;20067;-71
2022/05/31 06:28:34;;;;;;;2.25;0.45;;;17.40;56.20;;;;;;5078804;28;20451;-70
2022/05/31 06:30:59;;;;;;;0.95;0.17;;;17.40;56.10;;;;;;5086676;28;20817;-70
2022/05/31 06:33:25;;;;;;;5.15;0.20;;;17.50;56.10;;;;;;5083692;28;20138;-71
2022/05/31 06:35:50;;;;;;;0.60;0.10;;;17.40;56.10;;;;;;5086941;28;20044;-72
2022/05/31 06:38:19;;;;;;;1.88;0.43;;;17.50;56.10;;;;;;5087256;28;20130;-70
2022/05/31 06:40:44;;;;;;;0.93;0.20;;;17.50;56.00;;;;;;5091325;28;20054;-69
2022/05/31 06:43:10;;;;;;;2.55;0.20;;;17.60;56.00;;;;;;5108733;27;20047;-70
2022/05/31 06:45:36;;;;;;;3.80;0.20;;;17.60;56.00;;;;;;5094586;28;20510;-71
2022/05/31 06:48:02;;;;;;;2.05;0.20;;;17.60;56.00;;;;;;5089704;28;20039;-69
2022/05/31 06:50:30;;;;;;;2.17;0.20;;;17.60;56.10;;;;;;5090186;28;20044;-72
2022/05/31 06:58:27;;;;;;;2.17;0.20;;;17.70;56.40;;;;;;5087322;28;20078;-73
2022/05/31 07:00:53;;;;;;;2.63;0.20;;;17.70;56.20;;;;;;5091686;28;20159;-73
2022/05/31 07:03:18;;;;;;;2.20;0.20;;;17.70;56.20;;;;;;5104027;27;20036;-73
2022/05/31 07:05:44;;;;;;;4.40;0.57;;;17.70;56.30;;;;;;5088284;28;20509;-74
2022/05/31 07:08:10;;;;;;;3.90;0.20;;;17.70;56.60;;;;;;5083672;28;20094;-72
2022/05/31 07:10:35;;;;;;;3.03;0.30;;;17.70;56.90;;;;;;5081212;28;20052;-72
2022/05/31 07:13:01;;;;;;;3.22;0.20;;;17.80;56.80;;;;;;5102501;28;20052;-71
2022/05/31 07:15:27;;;;;;;3.97;0.52;;;17.80;56.90;;;;;;5085584;28;20044;-75
2022/05/31 07:17:53;;;;;;;1.15;0.20;;;17.80;57.00;;;;;;5086543;28;20040;-75
2022/05/31 07:20:19;;;;;;;3.95;0.30;;;17.80;57.20;;;;;;5099614;27;20127;-71
2022/05/31 07:22:45;;;;;;;2.58;0.50;;;17.80;57.30;;;;;;5102780;27;20054;-75
2022/05/31 07:25:11;;;;;;;2.83;0.22;;;17.80;57.40;;;;;;5089565;28;20048;-73
2022/05/31 07:27:37;;;;;;;4.22;0.40;;;17.80;57.50;;;;;;5068860;28;20135;-72
2022/05/31 07:30:04;;;;;;;1.92;0.30;;;17.80;57.50;;;;;;5069955;28;20484;-75
2022/05/31 07:32:30;;;;;;;3.20;0.45;;;17.90;57.60;;;;;;5072269;28;20112;-72
2022/05/31 07:34:55;;;;;;;2.20;0.30;;;17.90;57.50;;;;;;5071467;28;20646;-73
2022/05/31 07:37:21;;;;;;;1.60;0.40;;;17.80;57.40;;;;;;5072083;28;20036;-72
2022/05/31 07:39:48;;;;;;;4.03;0.50;;;17.90;57.40;;;;;;5071603;28;20040;-73
2022/05/31 07:42:14;;;;;;;2.53;0.30;;;17.90;57.50;;;;;;5072001;28;20056;-75
2022/05/31 07:44:40;;;;;;;1.77;0.30;;;17.90;57.50;;;;;;5073734;28;20052;-74
2022/05/31 07:47:06;;;;;;;3.33;0.47;;;17.90;57.40;;;;;;5073785;28;20048;-73
2022/05/31 07:49:32;;;;;;;3.15;0.50;;;17.90;57.30;;;;;;5070705;28;20048;-72
2022/05/31 07:52:00;;;;;;;1.77;0.30;;;17.90;57.30;;;;;;5080212;28;20044;-69
2022/05/31 07:54:30;;;;;;;3.67;0.40;;;18.00;57.10;;;;;;5073260;28;20112;-73
2022/05/31 07:56:55;;;;;;;5.00;0.52;;;18.00;56.90;;;;;;5073813;28;20047;-72
2022/05/31 07:59:21;;;;;;;3.80;0.43;;;18.00;56.90;;;;;;5078122;28;20032;-70
2022/05/31 08:01:47;;;;;;;2.72;0.40;;;18.10;57.00;;;;;;5074815;28;20451;-71
2022/05/31 08:04:14;;;;;;;3.10;0.60;;;18.10;57.00;;;;;;5070021;28;20044;-75
2022/05/31 08:06:40;;;;;;;4.68;0.55;;;18.10;57.00;;;;;;5073619;28;20107;-73
2022/05/31 08:09:06;;;;;;;3.45;0.50;;;18.10;56.90;;;;;;5074139;28;20119;-72
2022/05/31 08:11:33;;;;;;;4.85;0.63;;;18.20;57.00;;;;;;5069358;28;20078;-73
2022/05/31 08:14:03;;;;;;;3.55;0.50;;;18.20;57.00;;;;;;5075387;28;20172;-71
2022/05/31 08:16:29;;;;;;;3.38;1.13;;;18.20;56.90;;;;;;5072862;28;20039;-66
2022/05/31 08:18:56;;;;;;;2.40;0.63;;;18.20;56.60;;;;;;5072729;28;20056;-72
2022/05/31 08:21:27;;;;;;;5.85;1.17;;;18.30;56.40;;;;;;5089361;27;20040;-71
2022/05/31 08:23:55;;;;;;;2.88;0.40;;;18.30;56.10;;;;;;5073112;28;20064;-70
2022/05/31 08:26:21;;;;;;;4.22;0.45;;;18.40;55.50;;;;;;5073190;28;20052;-71
2022/05/31 08:28:47;;;;;;;2.40;0.55;;;18.50;55.10;;;;;;5073917;28;20039;-70
2022/05/31 08:31:15;;;;;;;1.95;0.40;;;18.50;54.60;;;;;;5072255;28;20036;-71
2022/05/31 08:33:41;;;;;;;3.00;0.65;;;18.50;54.10;;;;;;5071536;28;20040;-70
2022/05/31 08:36:07;;;;;;;4.78;0.40;;;18.60;53.80;;;;;;5067554;28;20043;-69
2022/05/31 08:38:33;;;;;;;3.13;0.30;;;18.70;53.80;;;;;;5067360;28;20035;-73
2022/05/31 08:44:33;;;;;;;4.05;0.82;;;18.90;53.60;;;;;;5117672;27;20206;-70
2022/05/31 08:47:17;;;;;;;5.00;0.75;;;19.10;53.40;;;;;;5093916;28;21903;-73
2022/05/31 08:53:33;;;;;;;2.97;0.75;;;19.30;53.00;;;;;;5080987;28;20725;-72
2022/05/31 09:01:36;;;;;;;7.88;0.90;;;19.70;52.10;;;;;;5113515;27;1169704;-73
2022/05/31 09:09:54;;;;;;;3.70;0.50;;;20.00;51.10;;;;;;5102066;27;20447;-72
2022/05/31 09:12:48;;;;;;;2.90;0.63;;;20.30;50.30;;;;;;5083422;28;20060;-72
2022/05/31 09:20:58;;;;;;;3.53;1.13;;;20.50;49.60;;;;;;5092265;27;20906;-75
2022/05/31 09:23:28;;;;;;;5.85;0.65;;;20.40;49.60;;;;;;5107548;28;20047;-75
2022/05/31 09:37:32;;;;;;;5.70;1.10;;;20.30;49.80;;;;;;5058264;27;20442;-72
2022/05/31 09:42:53;;;;;;;4.05;0.90;;;20.10;50.20;;;;;;5069880;27;21155;-73
2022/05/31 09:45:20;;;;;;;2.72;0.85;;;20.00;50.20;;;;;;5066980;28;20036;-73
2022/05/31 09:47:45;;;;;;;4.70;0.63;;;20.10;50.30;;;;;;5097992;28;20036;-74
2022/05/31 09:50:11;;;;;;;5.55;0.80;;;20.00;50.30;;;;;;5069182;28;20042;-73
2022/05/31 09:52:43;;;;;;;4.78;0.85;;;20.10;50.30;;;;;;5071392;28;20066;-71
2022/05/31 10:03:44;;;;;;;5.20;0.90;;;20.30;49.90;;;;;;5065031;28;20454;-74
2022/05/31 10:08:55;;;;;;;3.72;0.82;;;20.40;49.30;;;;;;5055041;27;20455;-73
2022/05/31 10:11:25;;;;;;;5.45;0.85;;;20.50;49.00;;;;;;5053712;28;20051;-74
2022/05/31 10:13:58;;;;;;;3.50;0.60;;;20.50;48.90;;;;;;5047983;28;20045;-73
2022/05/31 10:16:28;;;;;;;3.63;0.55;;;20.40;48.70;;;;;;5061587;28;20144;-71
2022/05/31 10:18:56;;;;;;;3.72;0.65;;;20.40;48.50;;;;;;5060951;28;20055;-72
2022/05/31 10:27:09;;;;;;;4.90;0.40;;;20.40;48.40;;;;;;5098955;27;1157477;-72
2022/05/31 10:29:50;;;;;;;3.53;0.32;;;20.30;48.00;;;;;;5112984;27;20406;-71
2022/05/31 10:37:57;;;;;;;2.25;0.50;;;20.30;47.60;;;;;;5128992;27;1158716;-71
2022/05/31 10:40:44;;;;;;;1.30;0.43;;;20.20;47.30;;;;;;5134079;27;20632;-77
2022/05/31 10:45:51;;;;;;;3.92;0.50;;;20.20;47.30;;;;;;5056385;27;20926;-71
2022/05/31 10:48:17;;;;;;;2.00;0.47;;;20.10;47.00;;;;;;5048706;28;20102;-73
2022/05/31 10:56:15;;;;;;;2.25;0.30;;;20.10;47.30;;;;;;5074390;27;21123;-71
2022/05/31 11:15:51;;;;;;;4.72;1.08;;;20.00;48.40;;;;;;5107965;27;1155131;-71
2022/05/31 11:24:29;;;;;;;2.88;0.90;;;19.90;48.70;;;;;;5050170;27;20492;-73
2022/05/31 11:49:26;;;;;;;3.63;0.77;;;20.00;49.30;;;;;;5046241;28;20206;-73
2022/05/31 11:55:40;;;;;;;3.80;1.30;;;20.00;49.60;;;;;;5090475;27;20459;-72
2022/05/31 12:00:41;;;;;;;4.97;0.95;;;20.00;49.70;;;;;;5119069;27;1174129;-73
2022/05/31 12:03:15;;;;;;;3.45;1.10;;;20.00;49.80;;;;;;5126395;27;20042;-73
2022/05/31 12:05:47;;;;;;;2.75;0.85;;;20.00;49.90;;;;;;5118322;27;20043;-71
2022/05/31 12:11:04;;;;;;;3.72;0.80;;;20.00;49.90;;;;;;5039908;27;21115;-72
2022/05/31 12:13:33;;;;;;;3.78;0.80;;;20.00;49.90;;;;;;5042308;28;20382;-70
2022/05/31 12:15:59;;;;;;;4.28;0.90;;;20.10;49.90;;;;;;5044110;28;20124;-70
2022/05/31 12:18:51;;;;;;;7.72;0.93;;;20.10;49.20;;;;;;5019113;28;20130;-73
2022/05/31 12:21:42;;;;;;;8.25;0.98;;;20.10;48.60;;;;;;5054721;28;20120;-71
2022/05/31 12:35:11;;;;;;;6.15;0.90;;;20.20;48.80;;;;;;5104295;27;1162780;-69
2022/05/31 12:43:14;;;;;;;5.38;0.65;;;20.30;49.10;;;;;;5105561;27;1163608;-72
2022/05/31 12:45:47;;;;;;;7.87;0.50;;;20.40;49.20;;;;;;5124395;27;20046;-72
2022/05/31 12:48:21;;;;;;;7.15;0.70;;;20.40;49.10;;;;;;5085756;27;20039;-71
2022/05/31 12:59:42;;;;;;;4.88;0.50;;;20.40;49.20;;;;;;5104836;27;20381;-73
2022/05/31 13:02:22;;;;;;;3.38;0.60;;;20.50;49.40;;;;;;5106089;27;20141;-72
2022/05/31 13:04:55;;;;;;;3.23;0.60;;;20.50;49.70;;;;;;5090848;28;20040;-72
2022/05/31 13:07:38;;;;;;;8.50;1.17;;;20.40;49.70;;;;;;5096815;28;20046;-73
2022/05/31 13:19:41;;;;;;;4.82;0.60;;;20.40;50.00;;;;;;5102710;27;20063;-69
2022/05/31 13:21:57;;;;;;;6.30;0.63;;;20.40;48.70;;;;;;5097267;28;20129;-71
2022/05/31 13:24:24;;;;;;;1.88;0.40;;;20.30;47.90;;;;;;5111084;27;20198;-71
2022/05/31 13:26:51;;;;;;;2.25;0.40;;;20.30;47.50;;;;;;5133591;27;20050;-72
2022/05/31 13:29:20;;;;;;;3.65;0.50;;;20.30;47.30;;;;;;5121438;27;20047;-68
2022/05/31 13:32:01;;;;;;;7.33;0.93;;;20.30;47.00;;;;;;5124409;27;20043;-70
2022/05/31 13:34:32;;;;;;;2.65;0.68;;;20.30;46.50;;;;;;5100183;28;20039;-70
2022/05/31 13:37:00;;;;;;;4.85;0.40;;;20.20;46.50;;;;;;5117134;27;20152;-70
2022/05/31 13:39:26;;;;;;;4.07;0.40;;;20.30;46.40;;;;;;5117730;28;20047;-69
2022/05/31 13:41:56;;;;;;;3.72;0.40;;;20.30;46.00;;;;;;5119731;27;20051;-70
2022/05/31 13:44:28;;;;;;;1.20;0.52;;;20.30;45.60;;;;;;5128527;27;20035;-70
2022/05/31 13:46:58;;;;;;;1.92;0.38;;;20.30;45.40;;;;;;5134763;27;20053;-69
2022/05/31 13:49:27;;;;;;;2.60;0.40;;;20.40;45.10;;;;;;5118020;27;20034;-69
2022/05/31 13:51:56;;;;;;;1.63;0.50;;;20.40;44.90;;;;;;5126022;27;20053;-71
2022/05/31 13:54:26;;;;;;;2.70;0.30;;;20.40;44.50;;;;;;5119007;27;20035;-70
2022/05/31 13:56:57;;;;;;;2.45;0.60;;;20.50;44.50;;;;;;5127804;27;20063;-72
2022/05/31 14:02:21;;;;;;;1.50;0.93;;;20.50;44.90;;;;;;5107949;27;1166567;-74
2022/05/31 14:04:58;;;;;;;3.53;0.52;;;20.60;45.30;;;;;;5106997;27;20068;-73
2022/05/31 14:07:31;;;;;;;1.95;0.50;;;20.60;45.30;;;;;;5121134;27;20068;-74
2022/05/31 14:09:58;;;;;;;1.48;0.70;;;20.70;45.50;;;;;;5119212;27;20038;-75
2022/05/31 14:12:27;;;;;;;2.67;0.60;;;20.70;45.20;;;;;;5117045;27;20066;-73
2022/05/31 14:14:53;;;;;;;2.90;0.40;;;20.70;45.30;;;;;;5122175;27;20031;-71
2022/05/31 14:17:41;;;;;;;8.20;0.73;;;20.70;45.40;;;;;;5136224;27;20031;-72
2022/05/31 14:23:04;;;;;;;2.78;0.70;;;20.80;45.60;;;;;;5120538;27;1167240;-67
2022/05/31 14:25:31;;;;;;;3.63;0.40;;;20.90;44.60;;;;;;5133699;27;20043;-67
2022/05/31 14:27:57;;;;;;;3.20;0.50;;;20.90;44.40;;;;;;5109838;28;20493;-68
2022/05/31 14:30:59;;;;;;;4.95;0.43;;;20.90;44.20;;;;;;5104253;28;20130;-67
2022/05/31 14:33:29;;;;;;;2.28;0.55;;;20.90;44.20;;;;;;5108191;27;20051;-66
2022/05/31 14:36:00;;;;;;;4.03;0.60;;;20.80;44.30;;;;;;5088586;28;20661;-67
2022/05/31 14:38:46;;;;;;;3.33;0.40;;;20.80;44.50;;;;;;5099467;28;20676;-68
2022/05/31 14:41:20;;;;;;;2.45;0.40;;;20.70;44.50;;;;;;5107660;28;20061;-67
2022/05/31 14:43:56;;;;;;;3.53;0.55;;;20.70;44.50;;;;;;5126879;28;20043;-67
2022/05/31 14:46:26;;;;;;;1.27;0.50;;;20.60;44.40;;;;;;5124806;28;20045;-67
2022/05/31 14:48:51;;;;;;;2.70;0.50;;;20.60;44.50;;;;;;5107624;28;20149;-66
2022/05/31 14:54:40;;;;;;;2.40;0.50;;;20.60;44.60;;;;;;5126546;27;20458;-67
2022/05/31 14:57:12;;;;;;;2.65;0.50;;;20.50;44.80;;;;;;5121742;28;20065;-67
2022/05/31 14:59:38;;;;;;;1.83;0.60;;;20.50;44.50;;;;;;5126586;28;20048;-66
2022/05/31 15:02:17;;;;;;;2.05;0.60;;;20.50;44.40;;;;;;5126733;28;20035;-65
2022/05/31 15:04:47;;;;;;;1.75;0.60;;;20.40;44.20;;;;;;5128160;28;20119;-66
2022/05/31 15:19:05;;;;;;;2.13;0.50;;;20.20;45.20;;;;;;5131108;27;20050;-67
2022/05/31 15:21:21;;;;;;;2.47;0.40;;;20.20;45.40;;;;;;5149724;27;20054;-69
2022/05/31 15:23:48;;;;;;;1.33;0.30;;;20.20;45.50;;;;;;5129998;27;20068;-68
2022/05/31 15:26:15;;;;;;;3.40;0.70;;;20.20;45.60;;;;;;5131401;27;20474;-67
2022/05/31 15:28:43;;;;;;;2.17;0.50;;;20.20;45.70;;;;;;5149756;27;20027;-67
2022/05/31 15:31:12;;;;;;;1.75;0.40;;;20.10;45.80;;;;;;5130923;27;20053;-67
2022/05/31 15:33:38;;;;;;;2.60;0.40;;;20.10;45.90;;;;;;5130640;27;20043;-67
2022/05/31 15:36:04;;;;;;;2.25;0.50;;;20.10;46.00;;;;;;5129199;27;20113;-68
2022/05/31 15:38:34;;;;;;;0.88;0.30;;;20.10;46.10;;;;;;5128946;27;20091;-67
2022/05/31 15:41:03;;;;;;;2.13;0.68;;;20.10;46.20;;;;;;5130782;27;20035;-67
2022/05/31 15:44:00;;;;;;;1.77;0.40;;;20.10;46.20;;;;;;5158679;27;20031;-67
2022/05/31 15:46:15;;;;;;;1.88;0.63;;;20.10;46.10;;;;;;5170153;27;20069;-67
2022/05/31 15:48:40;;;;;;;0.85;0.40;;;20.10;46.10;;;;;;5152038;27;20030;-66
2022/05/31 15:51:07;;;;;;;0.77;0.38;;;20.00;46.10;;;;;;5169889;27;20534;-67
2022/05/31 15:53:33;;;;;;;2.03;0.25;;;20.00;46.20;;;;;;5169569;27;20035;-68
2022/05/31 15:56:01;;;;;;;1.95;0.40;;;20.00;46.30;;;;;;5169465;27;20422;-68
2022/05/31 15:58:27;;;;;;;1.00;0.30;;;20.00;46.40;;;;;;5170253;27;20071;-66
2022/05/31 16:00:55;;;;;;;2.22;0.40;;;20.00;46.30;;;;;;5169671;27;20431;-67
2022/05/31 16:03:21;;;;;;;1.00;0.50;;;20.00;46.30;;;;;;5169941;27;20469;-66
2022/05/31 16:05:47;;;;;;;2.35;0.75;;;20.00;46.40;;;;;;5151412;27;20038;-67
2022/05/31 16:08:13;;;;;;;1.33;0.30;;;20.00;46.40;;;;;;5151283;27;20034;-67
2022/05/31 16:10:42;;;;;;;1.25;0.57;;;19.90;46.40;;;;;;5169615;27;20033;-67
2022/05/31 16:13:09;;;;;;;2.10;0.40;;;19.90;46.40;;;;;;5169725;27;20117;-65
2022/05/31 16:15:34;;;;;;;1.33;0.40;;;19.90;46.60;;;;;;5149854;27;20466;-67
2022/05/31 16:18:00;;;;;;;0.90;0.30;;;19.90;46.60;;;;;;5169710;27;20125;-68
2022/05/31 16:20:26;;;;;;;1.83;0.50;;;19.90;46.70;;;;;;5150563;27;20125;-67